Williamsburg, Iowa
Current Conditions -  °F | °C
As of 4:52 PM on Monday 24 Nov 2014 (Local Time) from KCID Reporting Station
Light Snow Light Snow  
Wind Chill: 10°   Ceiling: 1800
Heat Index: 24°   Visibility: 1.5mi
Dew Point: 22°   Wind: 20mph
Humidity: 91%   Direction: 280°W
Pressure: 29.7"   Gusts: NA
Location:  41.66°N, 92.01°W
Report Text: KCID 242252Z 28017KT 1 1/2SM -SN BR BKN018 BKN025 OVC033 M04/M06 A2970 RMK AO2 PK WND 27026/2155 SLP069 P0000 T10441056
Loading
Personal Weather Stations






























Interactive Weather Map New forecast layout! Learn more

10-Day Weather Forecast

Advertisements
Track Severe Weather on mobile